sensor_id;sensor_type;location;lat;lon;timestamp;P1;durP1;ratioP1;P2;durP2;ratioP2
3747;SDS011;1889;50.058;8.688;2022-12-24T00:01:38;5.87;;;1.37;;
3747;SDS011;1889;50.058;8.688;2022-12-24T00:04:07;6.28;;;2.62;;
3747;SDS011;1889;50.058;8.688;2022-12-24T00:06:36;4.17;;;1.60;;
3747;SDS011;1889;50.058;8.688;2022-12-24T00:09:05;6.75;;;1.82;;
3747;SDS011;1889;50.058;8.688;2022-12-24T00:11:35;8.60;;;1.87;;
3747;SDS011;1889;50.058;8.688;2022-12-24T00:14:04;7.42;;;2.10;;
3747;SDS011;1889;50.058;8.688;2022-12-24T00:16:34;8.75;;;1.82;;
3747;SDS011;1889;50.058;8.688;2022-12-24T00:19:03;5.78;;;2.00;;
3747;SDS011;1889;50.058;8.688;2022-12-24T00:21:32;7.50;;;2.05;;
3747;SDS011;1889;50.058;8.688;2022-12-24T00:24:01;3.37;;;1.50;;
3747;SDS011;1889;50.058;8.688;2022-12-24T00:26:32;7.20;;;1.72;;
3747;SDS011;1889;50.058;8.688;2022-12-24T00:29:02;6.50;;;1.85;;
3747;SDS011;1889;50.058;8.688;2022-12-24T00:31:31;8.05;;;1.80;;
3747;SDS011;1889;50.058;8.688;2022-12-24T00:34:01;3.52;;;1.60;;
3747;SDS011;1889;50.058;8.688;2022-12-24T00:36:30;4.90;;;1.72;;
3747;SDS011;1889;50.058;8.688;2022-12-24T00:38:59;7.37;;;1.70;;
3747;SDS011;1889;50.058;8.688;2022-12-24T00:41:29;5.55;;;1.85;;
3747;SDS011;1889;50.058;8.688;2022-12-24T00:44:02;4.65;;;1.60;;
3747;SDS011;1889;50.058;8.688;2022-12-24T00:46:33;5.80;;;2.00;;
3747;SDS011;1889;50.058;8.688;2022-12-24T00:49:03;6.15;;;1.72;;
3747;SDS011;1889;50.058;8.688;2022-12-24T00:51:34;4.25;;;1.72;;
3747;SDS011;1889;50.058;8.688;2022-12-24T00:54:04;5.78;;;1.70;;
3747;SDS011;1889;50.058;8.688;2022-12-24T00:56:34;7.20;;;1.75;;
3747;SDS011;1889;50.058;8.688;2022-12-24T00:59:03;4.70;;;1.70;;
3747;SDS011;1889;50.058;8.688;2022-12-24T01:01:33;5.75;;;2.40;;
3747;SDS011;1889;50.058;8.688;2022-12-24T01:04:03;5.80;;;1.42;;
3747;SDS011;1889;50.058;8.688;2022-12-24T01:06:50;2.52;;;1.30;;
3747;SDS011;1889;50.058;8.688;2022-12-24T01:09:19;7.67;;;1.70;;
3747;SDS011;1889;50.058;8.688;2022-12-24T01:11:49;7.33;;;2.22;;
3747;SDS011;1889;50.058;8.688;2022-12-24T01:14:18;2.72;;;1.60;;
3747;SDS011;1889;50.058;8.688;2022-12-24T01:16:47;3.77;;;1.50;;
3747;SDS011;1889;50.058;8.688;2022-12-24T01:19:17;4.53;;;1.47;;
3747;SDS011;1889;50.058;8.688;2022-12-24T01:21:46;2.30;;;1.15;;
3747;SDS011;1889;50.058;8.688;2022-12-24T01:24:15;4.30;;;1.37;;
3747;SDS011;1889;50.058;8.688;2022-12-24T01:26:45;6.85;;;1.57;;
3747;SDS011;1889;50.058;8.688;2022-12-24T01:29:14;9.18;;;1.50;;
3747;SDS011;1889;50.058;8.688;2022-12-24T01:31:44;7.40;;;1.42;;
3747;SDS011;1889;50.058;8.688;2022-12-24T01:34:13;4.83;;;1.70;;
3747;SDS011;1889;50.058;8.688;2022-12-24T01:36:42;7.10;;;1.60;;
3747;SDS011;1889;50.058;8.688;2022-12-24T01:39:12;4.45;;;1.52;;
3747;SDS011;1889;50.058;8.688;2022-12-24T01:41:41;5.12;;;1.80;;
3747;SDS011;1889;50.058;8.688;2022-12-24T01:44:33;6.00;;;1.67;;
3747;SDS011;1889;50.058;8.688;2022-12-24T01:50:14;6.90;;;1.40;;
3747;SDS011;1889;50.058;8.688;2022-12-24T01:52:44;6.87;;;1.67;;
3747;SDS011;1889;50.058;8.688;2022-12-24T01:55:14;6.15;;;1.60;;
3747;SDS011;1889;50.058;8.688;2022-12-24T01:57:50;6.22;;;1.90;;
3747;SDS011;1889;50.058;8.688;2022-12-24T02:00:21;5.17;;;1.67;;
3747;SDS011;1889;50.058;8.688;2022-12-24T02:02:51;7.20;;;1.55;;
3747;SDS011;1889;50.058;8.688;2022-12-24T02:08:00;8.33;;;1.42;;
3747;SDS011;1889;50.058;8.688;2022-12-24T02:10:31;6.12;;;1.92;;
3747;SDS011;1889;50.058;8.688;2022-12-24T02:13:01;6.05;;;1.70;;
3747;SDS011;1889;50.058;8.688;2022-12-24T02:16:15;5.12;;;1.90;;
3747;SDS011;1889;50.058;8.688;2022-12-24T02:18:15;7.12;;;2.12;;
3747;SDS011;1889;50.058;8.688;2022-12-24T02:26:02;5.70;;;1.42;;
3747;SDS011;1889;50.058;8.688;2022-12-24T02:33:53;7.20;;;1.77;;
3747;SDS011;1889;50.058;8.688;2022-12-24T02:36:35;8.25;;;1.72;;
3747;SDS011;1889;50.058;8.688;2022-12-24T02:39:10;4.40;;;1.67;;
3747;SDS011;1889;50.058;8.688;2022-12-24T02:41:42;6.00;;;1.72;;
3747;SDS011;1889;50.058;8.688;2022-12-24T02:44:37;5.62;;;1.67;;
3747;SDS011;1889;50.058;8.688;2022-12-24T02:47:03;5.00;;;2.40;;
3747;SDS011;1889;50.058;8.688;2022-12-24T02:49:35;6.85;;;1.55;;
3747;SDS011;1889;50.058;8.688;2022-12-24T02:52:05;6.58;;;1.80;;
3747;SDS011;1889;50.058;8.688;2022-12-24T02:54:35;9.05;;;2.80;;
3747;SDS011;1889;50.058;8.688;2022-12-24T03:02:22;5.75;;;1.50;;
3747;SDS011;1889;50.058;8.688;2022-12-24T03:04:56;6.95;;;1.70;;
3747;SDS011;1889;50.058;8.688;2022-12-24T03:12:46;4.78;;;1.67;;
3747;SDS011;1889;50.058;8.688;2022-12-24T03:15:14;7.67;;;1.95;;
3747;SDS011;1889;50.058;8.688;2022-12-24T03:17:45;6.85;;;1.77;;
3747;SDS011;1889;50.058;8.688;2022-12-24T03:20:18;11.18;;;2.15;;
3747;SDS011;1889;50.058;8.688;2022-12-24T03:22:49;6.37;;;1.47;;
3747;SDS011;1889;50.058;8.688;2022-12-24T03:25:19;10.72;;;2.05;;
3747;SDS011;1889;50.058;8.688;2022-12-24T03:27:52;6.78;;;1.80;;
3747;SDS011;1889;50.058;8.688;2022-12-24T03:30:24;6.60;;;2.22;;
3747;SDS011;1889;50.058;8.688;2022-12-24T03:32:54;5.70;;;2.00;;
3747;SDS011;1889;50.058;8.688;2022-12-24T03:35:23;6.17;;;1.75;;
3747;SDS011;1889;50.058;8.688;2022-12-24T03:37:53;9.28;;;1.92;;
3747;SDS011;1889;50.058;8.688;2022-12-24T03:40:23;7.53;;;1.67;;
3747;SDS011;1889;50.058;8.688;2022-12-24T03:42:52;2.27;;;1.40;;
3747;SDS011;1889;50.058;8.688;2022-12-24T03:45:22;6.95;;;1.42;;
3747;SDS011;1889;50.058;8.688;2022-12-24T03:47:52;5.83;;;1.47;;
3747;SDS011;1889;50.058;8.688;2022-12-24T03:50:21;4.92;;;1.30;;
3747;SDS011;1889;50.058;8.688;2022-12-24T03:52:51;5.03;;;1.40;;
3747;SDS011;1889;50.058;8.688;2022-12-24T03:55:21;9.28;;;1.40;;
3747;SDS011;1889;50.058;8.688;2022-12-24T03:57:50;10.35;;;1.60;;
3747;SDS011;1889;50.058;8.688;2022-12-24T04:00:20;6.20;;;1.57;;
3747;SDS011;1889;50.058;8.688;2022-12-24T04:02:49;8.98;;;1.70;;
3747;SDS011;1889;50.058;8.688;2022-12-24T04:05:19;4.70;;;1.47;;
3747;SDS011;1889;50.058;8.688;2022-12-24T04:07:48;5.03;;;1.52;;
3747;SDS011;1889;50.058;8.688;2022-12-24T04:10:18;6.15;;;1.55;;
3747;SDS011;1889;50.058;8.688;2022-12-24T04:12:47;4.62;;;1.57;;
3747;SDS011;1889;50.058;8.688;2022-12-24T04:15:16;7.03;;;1.90;;
3747;SDS011;1889;50.058;8.688;2022-12-24T04:17:45;3.85;;;1.42;;
3747;SDS011;1889;50.058;8.688;2022-12-24T04:20:15;6.83;;;1.50;;
3747;SDS011;1889;50.058;8.688;2022-12-24T04:22:44;4.40;;;1.80;;
3747;SDS011;1889;50.058;8.688;2022-12-24T04:25:13;7.78;;;1.87;;
3747;SDS011;1889;50.058;8.688;2022-12-24T04:27:43;6.92;;;1.62;;
3747;SDS011;1889;50.058;8.688;2022-12-24T04:30:12;9.45;;;1.75;;
3747;SDS011;1889;50.058;8.688;2022-12-24T04:32:41;5.80;;;2.05;;
3747;SDS011;1889;50.058;8.688;2022-12-24T04:35:11;4.67;;;1.62;;
3747;SDS011;1889;50.058;8.688;2022-12-24T04:37:40;5.30;;;2.33;;
3747;SDS011;1889;50.058;8.688;2022-12-24T04:40:10;4.67;;;1.35;;
3747;SDS011;1889;50.058;8.688;2022-12-24T04:42:39;7.17;;;1.80;;
3747;SDS011;1889;50.058;8.688;2022-12-24T04:45:08;7.50;;;1.60;;
3747;SDS011;1889;50.058;8.688;2022-12-24T04:47:38;7.45;;;1.35;;
3747;SDS011;1889;50.058;8.688;2022-12-24T04:50:07;7.28;;;1.70;;
3747;SDS011;1889;50.058;8.688;2022-12-24T04:52:37;7.20;;;1.95;;
3747;SDS011;1889;50.058;8.688;2022-12-24T04:55:07;9.55;;;2.15;;
3747;SDS011;1889;50.058;8.688;2022-12-24T04:57:36;5.00;;;1.80;;
3747;SDS011;1889;50.058;8.688;2022-12-24T05:00:06;5.40;;;1.72;;
3747;SDS011;1889;50.058;8.688;2022-12-24T05:02:36;5.85;;;2.50;;
3747;SDS011;1889;50.058;8.688;2022-12-24T05:05:05;5.03;;;1.60;;
3747;SDS011;1889;50.058;8.688;2022-12-24T05:07:35;6.70;;;1.70;;
3747;SDS011;1889;50.058;8.688;2022-12-24T05:10:05;5.45;;;1.98;;
3747;SDS011;1889;50.058;8.688;2022-12-24T05:12:35;7.00;;;1.50;;
3747;SDS011;1889;50.058;8.688;2022-12-24T05:15:04;5.72;;;1.40;;
3747;SDS011;1889;50.058;8.688;2022-12-24T05:17:34;6.12;;;1.70;;
3747;SDS011;1889;50.058;8.688;2022-12-24T05:20:05;5.67;;;1.57;;
3747;SDS011;1889;50.058;8.688;2022-12-24T05:22:34;6.80;;;1.70;;
3747;SDS011;1889;50.058;8.688;2022-12-24T05:25:21;8.63;;;1.32;;
3747;SDS011;1889;50.058;8.688;2022-12-24T05:28:08;3.50;;;1.40;;
3747;SDS011;1889;50.058;8.688;2022-12-24T05:30:38;6.50;;;1.90;;
3747;SDS011;1889;50.058;8.688;2022-12-24T05:33:07;5.65;;;1.55;;
3747;SDS011;1889;50.058;8.688;2022-12-24T05:35:36;7.97;;;1.47;;
3747;SDS011;1889;50.058;8.688;2022-12-24T05:38:05;5.55;;;1.57;;
3747;SDS011;1889;50.058;8.688;2022-12-24T05:40:35;7.03;;;1.65;;
3747;SDS011;1889;50.058;8.688;2022-12-24T05:43:04;7.35;;;1.80;;
3747;SDS011;1889;50.058;8.688;2022-12-24T05:45:33;6.15;;;2.22;;
3747;SDS011;1889;50.058;8.688;2022-12-24T05:48:03;8.70;;;1.87;;
3747;SDS011;1889;50.058;8.688;2022-12-24T05:50:34;11.40;;;2.37;;
3747;SDS011;1889;50.058;8.688;2022-12-24T05:53:05;10.30;;;3.15;;
3747;SDS011;1889;50.058;8.688;2022-12-24T05:55:35;9.20;;;2.70;;
3747;SDS011;1889;50.058;8.688;2022-12-24T05:58:04;6.85;;;2.40;;
3747;SDS011;1889;50.058;8.688;2022-12-24T06:00:34;5.67;;;2.05;;
3747;SDS011;1889;50.058;8.688;2022-12-24T06:03:03;7.50;;;2.33;;
3747;SDS011;1889;50.058;8.688;2022-12-24T06:05:32;5.95;;;1.85;;
3747;SDS011;1889;50.058;8.688;2022-12-24T06:08:02;6.92;;;3.00;;
3747;SDS011;1889;50.058;8.688;2022-12-24T06:10:31;8.70;;;2.00;;
3747;SDS011;1889;50.058;8.688;2022-12-24T06:13:00;7.47;;;1.98;;
3747;SDS011;1889;50.058;8.688;2022-12-24T06:15:30;6.42;;;2.02;;
3747;SDS011;1889;50.058;8.688;2022-12-24T06:17:59;7.20;;;1.77;;
3747;SDS011;1889;50.058;8.688;2022-12-24T06:20:28;8.38;;;2.22;;
3747;SDS011;1889;50.058;8.688;2022-12-24T06:22:59;8.28;;;2.00;;
3747;SDS011;1889;50.058;8.688;2022-12-24T06:25:28;5.22;;;1.70;;
3747;SDS011;1889;50.058;8.688;2022-12-24T06:27:58;9.40;;;2.22;;
3747;SDS011;1889;50.058;8.688;2022-12-24T06:30:27;6.90;;;1.95;;
3747;SDS011;1889;50.058;8.688;2022-12-24T06:32:56;5.80;;;1.90;;
3747;SDS011;1889;50.058;8.688;2022-12-24T06:35:26;5.75;;;2.30;;
3747;SDS011;1889;50.058;8.688;2022-12-24T06:37:55;8.70;;;2.47;;
3747;SDS011;1889;50.058;8.688;2022-12-24T06:40:25;12.30;;;2.65;;
3747;SDS011;1889;50.058;8.688;2022-12-24T06:42:54;12.85;;;2.85;;
3747;SDS011;1889;50.058;8.688;2022-12-24T06:45:24;9.25;;;2.42;;
3747;SDS011;1889;50.058;8.688;2022-12-24T06:47:53;7.78;;;2.37;;
3747;SDS011;1889;50.058;8.688;2022-12-24T06:50:22;11.28;;;2.92;;
3747;SDS011;1889;50.058;8.688;2022-12-24T06:52:51;10.30;;;2.85;;
3747;SDS011;1889;50.058;8.688;2022-12-24T06:55:21;6.25;;;2.27;;
3747;SDS011;1889;50.058;8.688;2022-12-24T06:57:50;8.53;;;2.10;;
3747;SDS011;1889;50.058;8.688;2022-12-24T07:00:20;6.72;;;2.17;;
3747;SDS011;1889;50.058;8.688;2022-12-24T07:02:49;6.55;;;2.12;;
3747;SDS011;1889;50.058;8.688;2022-12-24T07:05:22;8.63;;;2.22;;
3747;SDS011;1889;50.058;8.688;2022-12-24T07:07:49;7.72;;;2.37;;
3747;SDS011;1889;50.058;8.688;2022-12-24T07:10:19;9.08;;;2.83;;
3747;SDS011;1889;50.058;8.688;2022-12-24T07:12:48;8.25;;;2.17;;
3747;SDS011;1889;50.058;8.688;2022-12-24T07:15:18;9.25;;;2.62;;
3747;SDS011;1889;50.058;8.688;2022-12-24T07:17:47;10.88;;;2.33;;
3747;SDS011;1889;50.058;8.688;2022-12-24T07:20:16;12.68;;;3.27;;
3747;SDS011;1889;50.058;8.688;2022-12-24T07:22:46;7.12;;;1.92;;
3747;SDS011;1889;50.058;8.688;2022-12-24T07:25:15;9.85;;;2.55;;
3747;SDS011;1889;50.058;8.688;2022-12-24T07:27:44;8.18;;;2.58;;
3747;SDS011;1889;50.058;8.688;2022-12-24T07:30:14;10.15;;;2.83;;
3747;SDS011;1889;50.058;8.688;2022-12-24T07:32:43;10.40;;;2.33;;
3747;SDS011;1889;50.058;8.688;2022-12-24T07:35:12;8.33;;;2.72;;
3747;SDS011;1889;50.058;8.688;2022-12-24T07:37:42;10.00;;;2.22;;
3747;SDS011;1889;50.058;8.688;2022-12-24T07:40:11;8.50;;;2.12;;
3747;SDS011;1889;50.058;8.688;2022-12-24T07:42:40;8.43;;;2.65;;
3747;SDS011;1889;50.058;8.688;2022-12-24T07:45:10;9.90;;;2.40;;
3747;SDS011;1889;50.058;8.688;2022-12-24T07:47:39;9.00;;;2.52;;
3747;SDS011;1889;50.058;8.688;2022-12-24T07:50:08;10.88;;;2.55;;
3747;SDS011;1889;50.058;8.688;2022-12-24T07:52:38;10.10;;;2.33;;
3747;SDS011;1889;50.058;8.688;2022-12-24T07:55:07;12.47;;;2.62;;
3747;SDS011;1889;50.058;8.688;2022-12-24T07:57:37;13.13;;;2.22;;
3747;SDS011;1889;50.058;8.688;2022-12-24T08:00:07;12.07;;;2.55;;
3747;SDS011;1889;50.058;8.688;2022-12-24T08:02:37;9.40;;;2.40;;
3747;SDS011;1889;50.058;8.688;2022-12-24T08:05:06;10.95;;;2.60;;
3747;SDS011;1889;50.058;8.688;2022-12-24T08:07:36;11.50;;;2.40;;
3747;SDS011;1889;50.058;8.688;2022-12-24T08:10:06;11.53;;;2.70;;
3747;SDS011;1889;50.058;8.688;2022-12-24T08:12:36;6.78;;;2.15;;
3747;SDS011;1889;50.058;8.688;2022-12-24T08:15:05;7.75;;;2.50;;
3747;SDS011;1889;50.058;8.688;2022-12-24T08:17:35;6.12;;;2.40;;
3747;SDS011;1889;50.058;8.688;2022-12-24T08:20:05;14.60;;;2.72;;
3747;SDS011;1889;50.058;8.688;2022-12-24T08:22:36;9.45;;;2.52;;
3747;SDS011;1889;50.058;8.688;2022-12-24T08:25:05;8.28;;;2.90;;
3747;SDS011;1889;50.058;8.688;2022-12-24T08:27:35;11.30;;;2.40;;
3747;SDS011;1889;50.058;8.688;2022-12-24T08:30:05;8.98;;;2.70;;
3747;SDS011;1889;50.058;8.688;2022-12-24T08:32:35;11.33;;;3.12;;
3747;SDS011;1889;50.058;8.688;2022-12-24T08:35:05;7.65;;;2.77;;
3747;SDS011;1889;50.058;8.688;2022-12-24T08:37:34;10.38;;;2.58;;
3747;SDS011;1889;50.058;8.688;2022-12-24T08:40:04;11.68;;;3.05;;
3747;SDS011;1889;50.058;8.688;2022-12-24T08:42:34;6.60;;;2.62;;
3747;SDS011;1889;50.058;8.688;2022-12-24T08:45:03;7.90;;;2.58;;
3747;SDS011;1889;50.058;8.688;2022-12-24T08:47:53;11.15;;;2.80;;
3747;SDS011;1889;50.058;8.688;2022-12-24T08:50:23;9.65;;;2.75;;
3747;SDS011;1889;50.058;8.688;2022-12-24T08:52:52;10.05;;;2.50;;
3747;SDS011;1889;50.058;8.688;2022-12-24T08:55:21;17.25;;;7.42;;
3747;SDS011;1889;50.058;8.688;2022-12-24T08:57:51;6.33;;;2.75;;
3747;SDS011;1889;50.058;8.688;2022-12-24T09:00:20;14.43;;;2.65;;
3747;SDS011;1889;50.058;8.688;2022-12-24T09:02:50;10.93;;;3.00;;
3747;SDS011;1889;50.058;8.688;2022-12-24T09:05:19;11.85;;;2.83;;
3747;SDS011;1889;50.058;8.688;2022-12-24T09:07:49;12.50;;;2.77;;
3747;SDS011;1889;50.058;8.688;2022-12-24T09:10:18;10.32;;;2.80;;
3747;SDS011;1889;50.058;8.688;2022-12-24T09:12:48;13.48;;;2.98;;
3747;SDS011;1889;50.058;8.688;2022-12-24T09:15:17;13.98;;;3.05;;
3747;SDS011;1889;50.058;8.688;2022-12-24T09:17:47;17.20;;;3.37;;
3747;SDS011;1889;50.058;8.688;2022-12-24T09:20:16;11.48;;;3.12;;
3747;SDS011;1889;50.058;8.688;2022-12-24T09:22:45;11.30;;;3.15;;
3747;SDS011;1889;50.058;8.688;2022-12-24T09:25:15;15.15;;;3.05;;
3747;SDS011;1889;50.058;8.688;2022-12-24T09:27:44;10.82;;;2.85;;
3747;SDS011;1889;50.058;8.688;2022-12-24T09:30:14;15.25;;;2.98;;
3747;SDS011;1889;50.058;8.688;2022-12-24T09:32:43;12.60;;;3.50;;
3747;SDS011;1889;50.058;8.688;2022-12-24T09:35:12;8.78;;;3.00;;
3747;SDS011;1889;50.058;8.688;2022-12-24T09:37:42;14.75;;;3.50;;
3747;SDS011;1889;50.058;8.688;2022-12-24T09:40:21;10.95;;;3.25;;
3747;SDS011;1889;50.058;8.688;2022-12-24T09:47:57;16.37;;;3.55;;
3747;SDS011;1889;50.058;8.688;2022-12-24T09:50:33;12.58;;;3.50;;
3747;SDS011;1889;50.058;8.688;2022-12-24T09:53:05;18.07;;;4.03;;
3747;SDS011;1889;50.058;8.688;2022-12-24T09:55:43;13.45;;;3.80;;
3747;SDS011;1889;50.058;8.688;2022-12-24T09:58:22;14.50;;;3.58;;
3747;SDS011;1889;50.058;8.688;2022-12-24T10:00:55;13.43;;;3.37;;
3747;SDS011;1889;50.058;8.688;2022-12-24T10:03:25;10.98;;;3.35;;
3747;SDS011;1889;50.058;8.688;2022-12-24T10:11:26;10.98;;;3.25;;
3747;SDS011;1889;50.058;8.688;2022-12-24T10:16:52;11.78;;;3.20;;
3747;SDS011;1889;50.058;8.688;2022-12-24T10:19:24;17.27;;;3.67;;
3747;SDS011;1889;50.058;8.688;2022-12-24T10:22:13;12.15;;;3.33;;
3747;SDS011;1889;50.058;8.688;2022-12-24T10:24:49;16.35;;;3.95;;
3747;SDS011;1889;50.058;8.688;2022-12-24T10:27:22;11.75;;;3.00;;
3747;SDS011;1889;50.058;8.688;2022-12-24T10:29:55;12.37;;;3.20;;
3747;SDS011;1889;50.058;8.688;2022-12-24T10:32:26;11.35;;;4.20;;
3747;SDS011;1889;50.058;8.688;2022-12-24T10:34:59;14.58;;;2.92;;
3747;SDS011;1889;50.058;8.688;2022-12-24T10:37:30;16.20;;;2.92;;
3747;SDS011;1889;50.058;8.688;2022-12-24T10:40:00;12.50;;;3.17;;
3747;SDS011;1889;50.058;8.688;2022-12-24T10:42:38;11.60;;;2.47;;
3747;SDS011;1889;50.058;8.688;2022-12-24T10:45:15;12.88;;;3.33;;
3747;SDS011;1889;50.058;8.688;2022-12-24T10:47:47;10.05;;;2.95;;
3747;SDS011;1889;50.058;8.688;2022-12-24T10:50:23;8.55;;;2.87;;
3747;SDS011;1889;50.058;8.688;2022-12-24T10:52:59;7.28;;;2.65;;
3747;SDS011;1889;50.058;8.688;2022-12-24T10:55:47;11.73;;;2.80;;
3747;SDS011;1889;50.058;8.688;2022-12-24T10:58:18;15.58;;;3.27;;
3747;SDS011;1889;50.058;8.688;2022-12-24T11:00:51;15.38;;;3.20;;
3747;SDS011;1889;50.058;8.688;2022-12-24T11:03:22;18.02;;;3.50;;
3747;SDS011;1889;50.058;8.688;2022-12-24T11:06:07;8.90;;;2.70;;
3747;SDS011;1889;50.058;8.688;2022-12-24T11:08:44;13.35;;;3.20;;
3747;SDS011;1889;50.058;8.688;2022-12-24T11:11:11;11.65;;;2.50;;
3747;SDS011;1889;50.058;8.688;2022-12-24T11:19:00;16.35;;;4.95;;
3747;SDS011;1889;50.058;8.688;2022-12-24T11:21:32;10.53;;;4.60;;
3747;SDS011;1889;50.058;8.688;2022-12-24T11:24:06;14.58;;;5.08;;
3747;SDS011;1889;50.058;8.688;2022-12-24T11:26:42;12.15;;;4.05;;
3747;SDS011;1889;50.058;8.688;2022-12-24T11:29:18;10.75;;;3.77;;
3747;SDS011;1889;50.058;8.688;2022-12-24T11:31:50;11.30;;;4.33;;
3747;SDS011;1889;50.058;8.688;2022-12-24T11:34:29;12.85;;;3.52;;
3747;SDS011;1889;50.058;8.688;2022-12-24T11:37:22;10.68;;;3.00;;
3747;SDS011;1889;50.058;8.688;2022-12-24T11:39:40;10.03;;;3.00;;
3747;SDS011;1889;50.058;8.688;2022-12-24T11:42:33;10.30;;;2.87;;
3747;SDS011;1889;50.058;8.688;2022-12-24T11:45:05;11.93;;;2.90;;
3747;SDS011;1889;50.058;8.688;2022-12-24T11:47:37;8.25;;;2.65;;
3747;SDS011;1889;50.058;8.688;2022-12-24T11:53:06;9.85;;;2.62;;
3747;SDS011;1889;50.058;8.688;2022-12-24T11:55:47;13.18;;;2.90;;
3747;SDS011;1889;50.058;8.688;2022-12-24T12:04:09;16.48;;;3.05;;
3747;SDS011;1889;50.058;8.688;2022-12-24T12:06:51;12.23;;;3.30;;
3747;SDS011;1889;50.058;8.688;2022-12-24T12:09:43;7.95;;;2.67;;
3747;SDS011;1889;50.058;8.688;2022-12-24T12:12:27;12.65;;;2.95;;
3747;SDS011;1889;50.058;8.688;2022-12-24T12:15:20;12.00;;;2.25;;
3747;SDS011;1889;50.058;8.688;2022-12-24T12:17:49;8.65;;;3.20;;
3747;SDS011;1889;50.058;8.688;2022-12-24T12:20:21;10.63;;;2.67;;
3747;SDS011;1889;50.058;8.688;2022-12-24T12:25:34;6.62;;;2.85;;
3747;SDS011;1889;50.058;8.688;2022-12-24T12:28:05;12.80;;;2.80;;
3747;SDS011;1889;50.058;8.688;2022-12-24T12:30:36;13.35;;;3.05;;
3747;SDS011;1889;50.058;8.688;2022-12-24T12:33:12;8.78;;;2.45;;
3747;SDS011;1889;50.058;8.688;2022-12-24T12:35:40;13.05;;;2.90;;
3747;SDS011;1889;50.058;8.688;2022-12-24T12:38:13;13.22;;;3.05;;
3747;SDS011;1889;50.058;8.688;2022-12-24T12:46:50;8.70;;;2.92;;
3747;SDS011;1889;50.058;8.688;2022-12-24T12:49:40;12.78;;;3.10;;
3747;SDS011;1889;50.058;8.688;2022-12-24T12:54:53;12.58;;;2.60;;
3747;SDS011;1889;50.058;8.688;2022-12-24T12:57:32;14.68;;;3.12;;
3747;SDS011;1889;50.058;8.688;2022-12-24T13:00:08;9.20;;;2.92;;
3747;SDS011;1889;50.058;8.688;2022-12-24T13:08:08;12.37;;;3.15;;
3747;SDS011;1889;50.058;8.688;2022-12-24T13:11:05;10.45;;;3.08;;
3747;SDS011;1889;50.058;8.688;2022-12-24T13:16:42;8.60;;;2.67;;
3747;SDS011;1889;50.058;8.688;2022-12-24T13:19:25;12.07;;;2.90;;
3747;SDS011;1889;50.058;8.688;2022-12-24T13:21:55;10.45;;;3.17;;
3747;SDS011;1889;50.058;8.688;2022-12-24T13:24:25;9.30;;;3.08;;
3747;SDS011;1889;50.058;8.688;2022-12-24T13:27:11;15.28;;;3.30;;
3747;SDS011;1889;50.058;8.688;2022-12-24T13:30:01;16.77;;;4.30;;
3747;SDS011;1889;50.058;8.688;2022-12-24T13:32:50;12.95;;;3.37;;
3747;SDS011;1889;50.058;8.688;2022-12-24T13:37:54;7.50;;;2.33;;
3747;SDS011;1889;50.058;8.688;2022-12-24T13:40:26;4.75;;;1.77;;
3747;SDS011;1889;50.058;8.688;2022-12-24T13:50:48;8.90;;;2.98;;
3747;SDS011;1889;50.058;8.688;2022-12-24T13:56:02;11.83;;;3.08;;
3747;SDS011;1889;50.058;8.688;2022-12-24T13:58:44;13.80;;;2.98;;
3747;SDS011;1889;50.058;8.688;2022-12-24T14:01:19;8.05;;;2.47;;
3747;SDS011;1889;50.058;8.688;2022-12-24T14:03:46;12.53;;;3.08;;
3747;SDS011;1889;50.058;8.688;2022-12-24T14:06:30;9.00;;;2.58;;
3747;SDS011;1889;50.058;8.688;2022-12-24T14:09:08;10.15;;;2.20;;
3747;SDS011;1889;50.058;8.688;2022-12-24T14:14:34;11.57;;;2.98;;
3747;SDS011;1889;50.058;8.688;2022-12-24T14:17:13;10.75;;;3.20;;
3747;SDS011;1889;50.058;8.688;2022-12-24T14:19:45;12.13;;;3.12;;
3747;SDS011;1889;50.058;8.688;2022-12-24T14:22:37;8.68;;;2.92;;
3747;SDS011;1889;50.058;8.688;2022-12-24T14:25:02;12.30;;;3.55;;
3747;SDS011;1889;50.058;8.688;2022-12-24T14:27:42;15.10;;;4.72;;
3747;SDS011;1889;50.058;8.688;2022-12-24T14:32:51;13.32;;;3.42;;
3747;SDS011;1889;50.058;8.688;2022-12-24T14:35:25;11.97;;;3.20;;
3747;SDS011;1889;50.058;8.688;2022-12-24T14:37:57;11.05;;;3.40;;
3747;SDS011;1889;50.058;8.688;2022-12-24T14:40:35;12.98;;;3.33;;
3747;SDS011;1889;50.058;8.688;2022-12-24T14:43:19;10.55;;;3.05;;
3747;SDS011;1889;50.058;8.688;2022-12-24T14:48:53;13.72;;;3.27;;
3747;SDS011;1889;50.058;8.688;2022-12-24T14:54:29;12.60;;;4.28;;
3747;SDS011;1889;50.058;8.688;2022-12-24T15:00:00;15.35;;;3.75;;
3747;SDS011;1889;50.058;8.688;2022-12-24T15:02:48;13.85;;;3.22;;
3747;SDS011;1889;50.058;8.688;2022-12-24T15:05:19;10.55;;;3.40;;
3747;SDS011;1889;50.058;8.688;2022-12-24T15:07:55;12.95;;;3.45;;
3747;SDS011;1889;50.058;8.688;2022-12-24T15:10:34;10.45;;;3.47;;
3747;SDS011;1889;50.058;8.688;2022-12-24T15:13:14;9.18;;;3.10;;
3747;SDS011;1889;50.058;8.688;2022-12-24T15:15:44;9.48;;;2.98;;
3747;SDS011;1889;50.058;8.688;2022-12-24T15:18:17;11.78;;;3.12;;
3747;SDS011;1889;50.058;8.688;2022-12-24T15:20:52;8.50;;;2.80;;
3747;SDS011;1889;50.058;8.688;2022-12-24T15:23:33;12.07;;;3.02;;
3747;SDS011;1889;50.058;8.688;2022-12-24T15:28:48;9.23;;;2.70;;
3747;SDS011;1889;50.058;8.688;2022-12-24T15:31:18;9.30;;;3.30;;
3747;SDS011;1889;50.058;8.688;2022-12-24T15:33:51;8.58;;;3.05;;
3747;SDS011;1889;50.058;8.688;2022-12-24T15:36:32;12.70;;;3.55;;
3747;SDS011;1889;50.058;8.688;2022-12-24T15:39:11;8.65;;;2.52;;
3747;SDS011;1889;50.058;8.688;2022-12-24T15:41:40;8.30;;;3.25;;
3747;SDS011;1889;50.058;8.688;2022-12-24T15:44:32;13.15;;;3.83;;
3747;SDS011;1889;50.058;8.688;2022-12-24T15:47:05;10.03;;;2.95;;
3747;SDS011;1889;50.058;8.688;2022-12-24T15:49:37;15.80;;;7.28;;
3747;SDS011;1889;50.058;8.688;2022-12-24T15:52:08;11.05;;;4.67;;
3747;SDS011;1889;50.058;8.688;2022-12-24T15:54:48;16.05;;;6.00;;
3747;SDS011;1889;50.058;8.688;2022-12-24T15:57:22;9.15;;;3.50;;
3747;SDS011;1889;50.058;8.688;2022-12-24T15:59:56;7.17;;;2.87;;
3747;SDS011;1889;50.058;8.688;2022-12-24T16:02:39;12.90;;;3.35;;
3747;SDS011;1889;50.058;8.688;2022-12-24T16:07:58;8.60;;;3.47;;
3747;SDS011;1889;50.058;8.688;2022-12-24T16:10:35;8.53;;;4.00;;
3747;SDS011;1889;50.058;8.688;2022-12-24T16:13:13;9.88;;;3.92;;
3747;SDS011;1889;50.058;8.688;2022-12-24T16:16:03;6.90;;;2.98;;
3747;SDS011;1889;50.058;8.688;2022-12-24T16:18:44;9.38;;;3.77;;
3747;SDS011;1889;50.058;8.688;2022-12-24T16:21:23;9.23;;;4.08;;
3747;SDS011;1889;50.058;8.688;2022-12-24T16:24:16;17.37;;;4.70;;
3747;SDS011;1889;50.058;8.688;2022-12-24T16:26:57;11.05;;;4.45;;
3747;SDS011;1889;50.058;8.688;2022-12-24T16:29:26;9.90;;;3.65;;
3747;SDS011;1889;50.058;8.688;2022-12-24T16:31:56;8.05;;;3.52;;
3747;SDS011;1889;50.058;8.688;2022-12-24T16:34:27;11.57;;;4.45;;
3747;SDS011;1889;50.058;8.688;2022-12-24T16:36:58;13.45;;;4.05;;
3747;SDS011;1889;50.058;8.688;2022-12-24T16:39:31;10.80;;;3.50;;
3747;SDS011;1889;50.058;8.688;2022-12-24T16:42:02;9.18;;;3.62;;
3747;SDS011;1889;50.058;8.688;2022-12-24T16:44:51;8.85;;;4.00;;
3747;SDS011;1889;50.058;8.688;2022-12-24T16:47:27;9.90;;;2.92;;
3747;SDS011;1889;50.058;8.688;2022-12-24T16:49:55;8.65;;;3.52;;
3747;SDS011;1889;50.058;8.688;2022-12-24T16:52:26;11.03;;;3.00;;
3747;SDS011;1889;50.058;8.688;2022-12-24T16:54:59;8.88;;;2.72;;
3747;SDS011;1889;50.058;8.688;2022-12-24T16:57:29;6.10;;;2.25;;
3747;SDS011;1889;50.058;8.688;2022-12-24T17:00:02;10.15;;;3.17;;
3747;SDS011;1889;50.058;8.688;2022-12-24T17:02:33;5.60;;;1.87;;
3747;SDS011;1889;50.058;8.688;2022-12-24T17:05:02;12.65;;;2.98;;
3747;SDS011;1889;50.058;8.688;2022-12-24T17:07:32;6.40;;;2.62;;
3747;SDS011;1889;50.058;8.688;2022-12-24T17:10:01;7.50;;;1.90;;
3747;SDS011;1889;50.058;8.688;2022-12-24T17:12:30;6.22;;;2.45;;
3747;SDS011;1889;50.058;8.688;2022-12-24T17:15:00;7.42;;;2.27;;
3747;SDS011;1889;50.058;8.688;2022-12-24T17:17:29;4.85;;;2.50;;
3747;SDS011;1889;50.058;8.688;2022-12-24T17:19:58;6.50;;;2.40;;
3747;SDS011;1889;50.058;8.688;2022-12-24T17:22:28;5.62;;;2.25;;
3747;SDS011;1889;50.058;8.688;2022-12-24T17:24:57;5.65;;;1.92;;
3747;SDS011;1889;50.058;8.688;2022-12-24T17:27:27;7.22;;;3.17;;
3747;SDS011;1889;50.058;8.688;2022-12-24T17:29:56;6.55;;;2.65;;